JAL9185 YPPH-RJTT
Flight info
| Callsign | JAL9185 |
|---|---|
| Flight time | N/A |
| Altitude | 37000 |
| Route | AMANA Y31 MANIG Y13 VALRA A339 IDOTO/N0487F390 A339 TILLY/N0481F410 A339 MAKDA BUBDO Y527 BILLY Y21 AKSEL |
| Aircraft | A359/H-SDE2E3GHIJ3J4J5LM1ORWXY/LB1D1 |
Departure
| Time | 2026-05-05 10:16 |
|---|---|
| Airport | Perth International Airport (YPPH) |
Arrival
| Time | N/A |
|---|---|
| Airport | Tokyo Haneda International Airport (RJTT) |
| Time | Latitude | Longitude | Altitude | Speed | Heading |
|---|---|---|---|---|---|
| 2026-05-05 09:44 | -31.94041 | 115.97313 | 70 ft | 0 kts | 151° |
| 2026-05-05 10:03 | -31.94039 | 115.97311 | 70 ft | 3 kts | 151° |
| 2026-05-05 10:03 | -31.94022 | 115.97300 | 59 ft | 3 kts | 151° |
| 2026-05-05 10:03 | -31.94004 | 115.97289 | 59 ft | 3 kts | 155° |
| 2026-05-05 10:03 | -31.93986 | 115.97279 | 58 ft | 3 kts | 135° |
| 2026-05-05 10:04 | -31.93975 | 115.97259 | 58 ft | 3 kts | 92° |
| 2026-05-05 10:04 | -31.93974 | 115.97255 | 58 ft | 0 kts | 85° |
| 2026-05-05 10:10 | -31.93974 | 115.97257 | 67 ft | 2 kts | 85° |
| 2026-05-05 10:11 | -31.93971 | 115.97299 | 58 ft | 6 kts | 77° |
| 2026-05-05 10:11 | -31.93951 | 115.97347 | 61 ft | 8 kts | 57° |
| 2026-05-05 10:11 | -31.93899 | 115.97389 | 56 ft | 11 kts | 19° |
| 2026-05-05 10:11 | -31.93832 | 115.97356 | 58 ft | 12 kts | 326° |
| 2026-05-05 10:12 | -31.93753 | 115.97294 | 57 ft | 15 kts | 326° |
| 2026-05-05 10:12 | -31.93668 | 115.97229 | 60 ft | 15 kts | 328° |
| 2026-05-05 10:12 | -31.93575 | 115.97164 | 59 ft | 16 kts | 329° |
| 2026-05-05 10:12 | -31.93511 | 115.97120 | 57 ft | 16 kts | 329° |
| 2026-05-05 10:13 | -31.93412 | 115.97060 | 57 ft | 17 kts | 345° |
| 2026-05-05 10:13 | -31.93290 | 115.97073 | 56 ft | 19 kts | 15° |
| 2026-05-05 10:13 | -31.93112 | 115.97127 | 56 ft | 20 kts | 13° |
| 2026-05-05 10:13 | -31.92974 | 115.97150 | 57 ft | 20 kts | 345° |
| 2026-05-05 10:14 | -31.92956 | 115.97140 | 58 ft | 1 kts | 328° |
| 2026-05-05 10:14 | -31.92936 | 115.97108 | 59 ft | 9 kts | 293° |
| 2026-05-05 10:14 | -31.92922 | 115.97051 | 60 ft | 11 kts | 284° |
| 2026-05-05 10:14 | -31.92902 | 115.96959 | 58 ft | 12 kts | 285° |
| 2026-05-05 10:15 | -31.92899 | 115.96861 | 58 ft | 12 kts | 246° |
| 2026-05-05 10:15 | -31.92980 | 115.96809 | 57 ft | 21 kts | 197° |
| 2026-05-05 10:15 | -31.93344 | 115.96705 | 55 ft | 85 kts | 193° |
| 2026-05-05 10:15 | -31.94105 | 115.96483 | 62 ft | 138 kts | 194° |
| 2026-05-05 10:16 | -31.95190 | 115.96190 | 198 ft | 175 kts | 193° |
| 2026-05-05 10:16 | -31.96391 | 115.95854 | 807 ft | 174 kts | 194° |
| 2026-05-05 10:16 | -31.97533 | 115.95508 | 1596 ft | 170 kts | 192° |
| 2026-05-05 10:16 | -31.98734 | 115.95149 | 1864 ft | 188 kts | 192° |
| 2026-05-05 10:17 | -32.00082 | 115.94757 | 2098 ft | 210 kts | 191° |
| 2026-05-05 10:17 | -32.01569 | 115.94616 | 2302 ft | 229 kts | 168° |
| 2026-05-05 10:17 | -32.02987 | 115.95527 | 2562 ft | 244 kts | 130° |
| 2026-05-05 10:17 | -32.03733 | 115.97334 | 3126 ft | 249 kts | 106° |
| 2026-05-05 10:18 | -32.04174 | 115.99324 | 3806 ft | 252 kts | 104° |
| 2026-05-05 10:18 | -32.04610 | 116.01343 | 4451 ft | 256 kts | 105° |
| 2026-05-05 10:18 | -32.05066 | 116.03390 | 5024 ft | 260 kts | 105° |
| 2026-05-05 10:18 | -32.05539 | 116.05457 | 5664 ft | 263 kts | 106° |
| 2026-05-05 10:19 | -32.06023 | 116.07544 | 6342 ft | 266 kts | 106° |
| 2026-05-05 10:19 | -32.06517 | 116.09657 | 7026 ft | 269 kts | 106° |
| 2026-05-05 10:19 | -32.07018 | 116.11800 | 7687 ft | 273 kts | 106° |
| 2026-05-05 10:19 | -32.07527 | 116.13970 | 8374 ft | 276 kts | 107° |
| 2026-05-05 10:20 | -32.08042 | 116.16167 | 9063 ft | 280 kts | 107° |
| 2026-05-05 10:20 | -32.08534 | 116.18372 | 9729 ft | 284 kts | 103° |
| 2026-05-05 10:20 | -32.08615 | 116.20709 | 10315 ft | 294 kts | 82° |
| 2026-05-05 10:20 | -32.07829 | 116.22997 | 10569 ft | 314 kts | 55° |
| 2026-05-05 10:21 | -32.06355 | 116.24997 | 10837 ft | 332 kts | 47° |
| 2026-05-05 10:21 | -32.04705 | 116.27000 | 11119 ft | 348 kts | 47° |
| 2026-05-05 10:21 | -32.02993 | 116.29087 | 11523 ft | 358 kts | 47° |
| 2026-05-05 10:21 | -32.01256 | 116.31225 | 12097 ft | 363 kts | 47° |
| 2026-05-05 10:22 | -31.99506 | 116.33391 | 12684 ft | 367 kts | 48° |
| 2026-05-05 10:22 | -31.97746 | 116.35576 | 13305 ft | 370 kts | 48° |
| 2026-05-05 10:22 | -31.95967 | 116.37788 | 13917 ft | 373 kts | 48° |
| 2026-05-05 10:22 | -31.94174 | 116.40022 | 14478 ft | 377 kts | 48° |
| 2026-05-05 10:23 | -31.92388 | 116.42250 | 14995 ft | 381 kts | 47° |
| 2026-05-05 10:23 | -31.90554 | 116.44527 | 15524 ft | 385 kts | 47° |
| 2026-05-05 10:23 | -31.88702 | 116.46827 | 16048 ft | 389 kts | 47° |
| 2026-05-05 10:23 | -31.86830 | 116.49149 | 16582 ft | 393 kts | 47° |
| 2026-05-05 10:24 | -31.84940 | 116.51494 | 17105 ft | 397 kts | 47° |
| 2026-05-05 10:24 | -31.83036 | 116.53856 | 17634 ft | 401 kts | 47° |
| 2026-05-05 10:24 | -31.81109 | 116.56246 | 18155 ft | 405 kts | 46° |
| 2026-05-05 10:24 | -31.79160 | 116.58661 | 18660 ft | 409 kts | 46° |
| 2026-05-05 10:25 | -31.77196 | 116.61093 | 19129 ft | 411 kts | 46° |
| 2026-05-05 10:25 | -31.75219 | 116.63542 | 19607 ft | 414 kts | 46° |
| 2026-05-05 10:25 | -31.73261 | 116.65979 | 20108 ft | 417 kts | 46° |
| 2026-05-05 10:25 | -31.71261 | 116.68453 | 20606 ft | 420 kts | 46° |
| 2026-05-05 10:26 | -31.69240 | 116.70944 | 21135 ft | 422 kts | 46° |
| 2026-05-05 10:26 | -31.67206 | 116.73449 | 21641 ft | 425 kts | 46° |
| 2026-05-05 10:26 | -31.65156 | 116.75973 | 22150 ft | 428 kts | 45° |
| 2026-05-05 10:26 | -31.63094 | 116.78512 | 22652 ft | 431 kts | 45° |
| 2026-05-05 10:27 | -31.61017 | 116.81068 | 23132 ft | 434 kts | 45° |
| 2026-05-05 10:27 | -31.58925 | 116.83641 | 23650 ft | 437 kts | 45° |
| 2026-05-05 10:27 | -31.56681 | 116.86056 | 24089 ft | 439 kts | 37° |
| 2026-05-05 10:27 | -31.54145 | 116.88048 | 24447 ft | 441 kts | 27° |
| 2026-05-05 10:28 | -31.51387 | 116.89548 | 24810 ft | 444 kts | 21° |
| 2026-05-05 10:28 | -31.48501 | 116.90865 | 25210 ft | 446 kts | 19° |
| 2026-05-05 10:28 | -31.45570 | 116.92086 | 25655 ft | 447 kts | 18° |
| 2026-05-05 10:28 | -31.42623 | 116.93266 | 26067 ft | 450 kts | 17° |
| 2026-05-05 10:29 | -31.39646 | 116.94447 | 26437 ft | 453 kts | 17° |
| 2026-05-05 10:29 | -31.36653 | 116.95643 | 26821 ft | 456 kts | 17° |
| 2026-05-05 10:29 | -31.33642 | 116.96858 | 27201 ft | 459 kts | 18° |
| 2026-05-05 10:29 | -31.30613 | 116.98090 | 27575 ft | 462 kts | 18° |
| 2026-05-05 10:30 | -31.27568 | 116.99336 | 27952 ft | 465 kts | 18° |
| 2026-05-05 10:30 | -31.24504 | 117.00593 | 28313 ft | 468 kts | 18° |
| 2026-05-05 10:30 | -31.21418 | 117.01860 | 28619 ft | 472 kts | 18° |
| 2026-05-05 10:30 | -31.18344 | 117.03120 | 28938 ft | 476 kts | 18° |
| 2026-05-05 10:31 | -31.15210 | 117.04404 | 29296 ft | 479 kts | 18° |
| 2026-05-05 10:31 | -31.12057 | 117.05695 | 29628 ft | 482 kts | 18° |
| 2026-05-05 10:31 | -31.08890 | 117.06990 | 29968 ft | 485 kts | 18° |
| 2026-05-05 10:31 | -31.05690 | 117.08298 | 30276 ft | 487 kts | 18° |
| 2026-05-05 10:32 | -31.02486 | 117.09606 | 30556 ft | 490 kts | 17° |
| 2026-05-05 10:32 | -30.99260 | 117.10922 | 30822 ft | 492 kts | 17° |
| 2026-05-05 10:32 | -30.96021 | 117.12242 | 31089 ft | 494 kts | 17° |
| 2026-05-05 10:32 | -30.92768 | 117.13567 | 31344 ft | 496 kts | 17° |
| 2026-05-05 10:33 | -30.89507 | 117.14895 | 31604 ft | 498 kts | 17° |
| 2026-05-05 10:33 | -30.86247 | 117.16285 | 31832 ft | 501 kts | 21° |
| 2026-05-05 10:33 | -30.83080 | 117.18012 | 32069 ft | 504 kts | 24° |
| 2026-05-05 10:33 | -30.79979 | 117.19821 | 32269 ft | 506 kts | 25° |
| 2026-05-05 10:34 | -30.76841 | 117.21702 | 32500 ft | 508 kts | 25° |
| 2026-05-05 10:34 | -30.73709 | 117.23606 | 32811 ft | 508 kts | 25° |
| 2026-05-05 10:34 | -30.70583 | 117.25512 | 33136 ft | 507 kts | 25° |
| 2026-05-05 10:34 | -30.67463 | 117.27412 | 33425 ft | 507 kts | 25° |
| 2026-05-05 10:35 | -30.64334 | 117.29312 | 33721 ft | 507 kts | 25° |
| 2026-05-05 10:35 | -30.61209 | 117.31203 | 33984 ft | 507 kts | 25° |
| 2026-05-05 10:35 | -30.58087 | 117.33087 | 34253 ft | 507 kts | 25° |
| 2026-05-05 10:35 | -30.54956 | 117.34973 | 34469 ft | 507 kts | 24° |
| 2026-05-05 10:36 | -30.51828 | 117.36855 | 34713 ft | 506 kts | 24° |
| 2026-05-05 10:36 | -30.48745 | 117.38709 | 34950 ft | 506 kts | 24° |
| 2026-05-05 10:36 | -30.45622 | 117.40586 | 35169 ft | 505 kts | 24° |
| 2026-05-05 10:36 | -30.42502 | 117.42459 | 35386 ft | 505 kts | 24° |
| 2026-05-05 10:37 | -30.39389 | 117.44328 | 35603 ft | 504 kts | 24° |
| 2026-05-05 10:37 | -30.36273 | 117.46196 | 35804 ft | 504 kts | 24° |
| 2026-05-05 10:37 | -30.33157 | 117.48064 | 36017 ft | 504 kts | 24° |
| 2026-05-05 10:37 | -30.30049 | 117.49925 | 36204 ft | 503 kts | 24° |
| 2026-05-05 10:38 | -30.26940 | 117.51785 | 36393 ft | 503 kts | 24° |
| 2026-05-05 10:38 | -30.23832 | 117.53644 | 36572 ft | 503 kts | 24° |
| 2026-05-05 10:38 | -30.20725 | 117.55500 | 36752 ft | 502 kts | 24° |
| 2026-05-05 10:38 | -30.17667 | 117.57326 | 36914 ft | 502 kts | 23° |
| 2026-05-05 10:39 | -30.14563 | 117.59178 | 37087 ft | 502 kts | 23° |
| 2026-05-05 10:39 | -30.11462 | 117.61028 | 37247 ft | 501 kts | 23° |
| 2026-05-05 10:39 | -30.05237 | 117.64733 | 37281 ft | 507 kts | 23° |
| 2026-05-05 10:40 | -29.98963 | 117.68464 | 37300 ft | 507 kts | 23° |
| 2026-05-05 10:40 | -29.92746 | 117.72159 | 37297 ft | 506 kts | 23° |
| 2026-05-05 10:41 | -29.86485 | 117.75873 | 37301 ft | 506 kts | 23° |
| 2026-05-05 10:41 | -29.80271 | 117.79554 | 37297 ft | 506 kts | 23° |
| 2026-05-05 10:42 | -29.70882 | 117.85104 | 37302 ft | 505 kts | 24° |
| 2026-05-05 10:43 | -29.64632 | 117.88793 | 37299 ft | 505 kts | 24° |
| 2026-05-05 10:43 | -29.58385 | 117.92475 | 37296 ft | 505 kts | 24° |
| 2026-05-05 10:44 | -29.52174 | 117.96132 | 37294 ft | 505 kts | 24° |
| 2026-05-05 10:44 | -29.45920 | 117.99807 | 37293 ft | 505 kts | 24° |
| 2026-05-05 10:45 | -29.39666 | 118.03475 | 37293 ft | 505 kts | 24° |
| 2026-05-05 10:45 | -29.33421 | 118.07135 | 37293 ft | 505 kts | 24° |
| 2026-05-05 10:46 | -29.27167 | 118.10795 | 37297 ft | 504 kts | 24° |
| 2026-05-05 10:46 | -29.20914 | 118.14449 | 37295 ft | 505 kts | 24° |
| 2026-05-05 10:47 | -29.14704 | 118.18072 | 37288 ft | 504 kts | 24° |
| 2026-05-05 10:47 | -29.08451 | 118.21717 | 37291 ft | 504 kts | 24° |
| 2026-05-05 10:48 | -29.02199 | 118.25356 | 37291 ft | 504 kts | 24° |
| 2026-05-05 10:48 | -28.95953 | 118.28987 | 37284 ft | 504 kts | 24° |
| 2026-05-05 10:49 | -28.89699 | 118.32617 | 37284 ft | 504 kts | 24° |
| 2026-05-05 10:49 | -28.83450 | 118.36238 | 37288 ft | 504 kts | 24° |
| 2026-05-05 10:50 | -28.77192 | 118.39861 | 37289 ft | 503 kts | 24° |
| 2026-05-05 10:50 | -28.70988 | 118.43449 | 37294 ft | 503 kts | 24° |
| 2026-05-05 10:51 | -28.64748 | 118.47050 | 37287 ft | 503 kts | 24° |
| 2026-05-05 10:51 | -28.58501 | 118.50652 | 37284 ft | 503 kts | 24° |
| 2026-05-05 10:52 | -28.52254 | 118.54248 | 37288 ft | 503 kts | 24° |
| 2026-05-05 10:52 | -28.46007 | 118.57840 | 37286 ft | 503 kts | 24° |
| 2026-05-05 10:53 | -28.39761 | 118.61427 | 37281 ft | 503 kts | 24° |
| 2026-05-05 10:53 | -28.33552 | 118.64988 | 37287 ft | 503 kts | 24° |
| 2026-05-05 10:54 | -28.27305 | 118.68566 | 37273 ft | 503 kts | 25° |
| 2026-05-05 10:54 | -28.21057 | 118.72139 | 37282 ft | 503 kts | 25° |
| 2026-05-05 10:55 | -28.14807 | 118.75710 | 37277 ft | 503 kts | 25° |
| 2026-05-05 10:55 | -28.08555 | 118.79280 | 37280 ft | 503 kts | 24° |
| 2026-05-05 10:56 | -28.02348 | 118.82813 | 37278 ft | 503 kts | 24° |
| 2026-05-05 10:56 | -27.96090 | 118.86370 | 37273 ft | 504 kts | 24° |
| 2026-05-05 10:57 | -27.89809 | 118.89938 | 37278 ft | 506 kts | 24° |
| 2026-05-05 10:57 | -27.83521 | 118.93506 | 37279 ft | 506 kts | 24° |
| 2026-05-05 10:58 | -27.77223 | 118.97075 | 37274 ft | 506 kts | 24° |
| 2026-05-05 10:58 | -27.70984 | 119.00607 | 37273 ft | 504 kts | 24° |
| 2026-05-05 10:59 | -27.64710 | 119.04153 | 37270 ft | 505 kts | 24° |
| 2026-05-05 10:59 | -27.58401 | 119.07713 | 37271 ft | 508 kts | 24° |
| 2026-05-05 11:00 | -27.52086 | 119.11272 | 37272 ft | 508 kts | 24° |
| 2026-05-05 11:00 | -27.45766 | 119.14831 | 37276 ft | 508 kts | 24° |
| 2026-05-05 11:01 | -27.39484 | 119.18363 | 37271 ft | 508 kts | 24° |
| 2026-05-05 11:01 | -27.33159 | 119.21915 | 37272 ft | 508 kts | 24° |
| 2026-05-05 11:02 | -27.26835 | 119.25462 | 37271 ft | 508 kts | 24° |
| 2026-05-05 11:02 | -27.20519 | 119.29000 | 37270 ft | 507 kts | 24° |
| 2026-05-05 11:03 | -27.14212 | 119.32528 | 37266 ft | 507 kts | 24° |
| 2026-05-05 11:03 | -27.07899 | 119.36055 | 37256 ft | 506 kts | 24° |
| 2026-05-05 11:04 | -27.01622 | 119.39557 | 37265 ft | 509 kts | 24° |
| 2026-05-05 11:04 | -26.95269 | 119.43097 | 37265 ft | 510 kts | 24° |
| 2026-05-05 11:05 | -26.88913 | 119.46635 | 37262 ft | 510 kts | 24° |
| 2026-05-05 11:05 | -26.82558 | 119.50168 | 37261 ft | 510 kts | 24° |
| 2026-05-05 11:06 | -26.76248 | 119.53672 | 37253 ft | 510 kts | 23° |
| 2026-05-05 11:06 | -26.69875 | 119.57204 | 37260 ft | 512 kts | 23° |
| 2026-05-05 11:07 | -26.63491 | 119.60739 | 37258 ft | 512 kts | 23° |
| 2026-05-05 11:07 | -26.57107 | 119.64270 | 37253 ft | 512 kts | 23° |
| 2026-05-05 11:08 | -26.50766 | 119.67774 | 37254 ft | 512 kts | 23° |
| 2026-05-05 11:08 | -26.44385 | 119.71294 | 37258 ft | 513 kts | 23° |
| 2026-05-05 11:09 | -26.37977 | 119.74824 | 37255 ft | 514 kts | 23° |
| 2026-05-05 11:09 | -26.31558 | 119.78356 | 37250 ft | 514 kts | 23° |
| 2026-05-05 11:10 | -26.25148 | 119.81880 | 37254 ft | 514 kts | 23° |
| 2026-05-05 11:10 | -26.18730 | 119.85404 | 37250 ft | 514 kts | 22° |
| 2026-05-05 11:11 | -26.12359 | 119.88897 | 37250 ft | 516 kts | 22° |
| 2026-05-05 11:11 | -26.05902 | 119.92431 | 37246 ft | 518 kts | 22° |
| 2026-05-05 11:12 | -25.99439 | 119.95966 | 37244 ft | 518 kts | 22° |
| 2026-05-05 11:12 | -25.92976 | 119.99499 | 37240 ft | 517 kts | 22° |
| 2026-05-05 11:13 | -25.86511 | 120.03026 | 37225 ft | 517 kts | 22° |
| 2026-05-05 11:13 | -25.80041 | 120.06551 | 37238 ft | 520 kts | 21° |
| 2026-05-05 11:14 | -25.73536 | 120.10091 | 37234 ft | 521 kts | 21° |
| 2026-05-05 11:14 | -25.67079 | 120.13602 | 37235 ft | 521 kts | 21° |
| 2026-05-05 11:15 | -25.60571 | 120.17135 | 37237 ft | 521 kts | 21° |
| 2026-05-05 11:15 | -25.54060 | 120.20667 | 37228 ft | 521 kts | 20° |
| 2026-05-05 11:16 | -25.47529 | 120.24203 | 37230 ft | 523 kts | 20° |
| 2026-05-05 11:16 | -25.40993 | 120.27739 | 37230 ft | 523 kts | 20° |
| 2026-05-05 11:17 | -25.34460 | 120.31270 | 37227 ft | 523 kts | 20° |
| 2026-05-05 11:17 | -25.27963 | 120.34776 | 37227 ft | 523 kts | 20° |
| 2026-05-05 11:18 | -25.21425 | 120.38301 | 37229 ft | 524 kts | 19° |
| 2026-05-05 11:18 | -25.14846 | 120.41841 | 37225 ft | 526 kts | 19° |
| 2026-05-05 11:19 | -25.08260 | 120.45382 | 37223 ft | 526 kts | 19° |
| 2026-05-05 11:19 | -25.01678 | 120.48919 | 37226 ft | 526 kts | 19° |
| 2026-05-05 11:20 | -24.95106 | 120.52448 | 37221 ft | 526 kts | 19° |
| 2026-05-05 11:20 | -24.88509 | 120.55979 | 37214 ft | 529 kts | 18° |
| 2026-05-05 11:21 | -24.81919 | 120.59501 | 37218 ft | 531 kts | 18° |
| 2026-05-05 11:21 | -24.75284 | 120.63048 | 37205 ft | 531 kts | 18° |
| 2026-05-05 11:22 | -24.68641 | 120.66595 | 37209 ft | 530 kts | 18° |
| 2026-05-05 11:22 | -24.61999 | 120.70137 | 37185 ft | 530 kts | 18° |
| 2026-05-05 11:23 | -24.55352 | 120.73676 | 37206 ft | 532 kts | 18° |
| 2026-05-05 11:23 | -24.48686 | 120.77221 | 37205 ft | 532 kts | 18° |
| 2026-05-05 11:24 | -24.42019 | 120.80763 | 37205 ft | 532 kts | 18° |
| 2026-05-05 11:24 | -24.35399 | 120.84277 | 37202 ft | 532 kts | 18° |
| 2026-05-05 11:25 | -24.28731 | 120.87811 | 37202 ft | 532 kts | 18° |
| 2026-05-05 11:25 | -24.22069 | 120.91337 | 37200 ft | 532 kts | 18° |
| 2026-05-05 11:26 | -24.15396 | 120.94866 | 37200 ft | 532 kts | 18° |
| 2026-05-05 11:26 | -24.08730 | 120.98387 | 37194 ft | 532 kts | 18° |
| 2026-05-05 11:27 | -24.02070 | 121.01900 | 37194 ft | 532 kts | 18° |
| 2026-05-05 11:27 | -23.95437 | 121.05395 | 37193 ft | 533 kts | 17° |
| 2026-05-05 11:28 | -23.88753 | 121.08911 | 37184 ft | 534 kts | 17° |
| 2026-05-05 11:28 | -23.82061 | 121.12430 | 37188 ft | 534 kts | 17° |
| 2026-05-05 11:29 | -23.75368 | 121.15945 | 37185 ft | 534 kts | 17° |
| 2026-05-05 11:29 | -23.68673 | 121.19458 | 37168 ft | 534 kts | 17° |
| 2026-05-05 11:30 | -23.61960 | 121.22971 | 37175 ft | 537 kts | 17° |
| 2026-05-05 11:30 | -23.55514 | 121.26344 | 37176 ft | 537 kts | 17° |
| 2026-05-05 11:31 | -23.48789 | 121.29862 | 37175 ft | 536 kts | 16° |
| 2026-05-05 11:31 | -23.42060 | 121.33376 | 37176 ft | 536 kts | 16° |
| 2026-05-05 11:32 | -23.35327 | 121.36886 | 37167 ft | 538 kts | 16° |
| 2026-05-05 11:32 | -23.28563 | 121.40407 | 37172 ft | 539 kts | 16° |
| 2026-05-05 11:33 | -23.21843 | 121.43905 | 37163 ft | 539 kts | 16° |
| 2026-05-05 11:33 | -23.15072 | 121.47427 | 37160 ft | 539 kts | 16° |
| 2026-05-05 11:34 | -23.08298 | 121.50944 | 37125 ft | 539 kts | 15° |
| 2026-05-05 11:34 | -23.01515 | 121.54461 | 37156 ft | 541 kts | 15° |
| 2026-05-05 11:35 | -22.94731 | 121.57975 | 37156 ft | 541 kts | 15° |
| 2026-05-05 11:35 | -22.87984 | 121.61467 | 37151 ft | 541 kts | 15° |
| 2026-05-05 11:36 | -22.81191 | 121.64978 | 37148 ft | 541 kts | 15° |
| 2026-05-05 11:36 | -22.74398 | 121.68486 | 37144 ft | 541 kts | 15° |
| 2026-05-05 11:37 | -22.67585 | 121.71998 | 37145 ft | 543 kts | 15° |
| 2026-05-05 11:37 | -22.60816 | 121.75485 | 37141 ft | 542 kts | 15° |
| 2026-05-05 11:38 | -22.54007 | 121.78990 | 37141 ft | 542 kts | 15° |
| 2026-05-05 11:38 | -22.47190 | 121.82495 | 37134 ft | 542 kts | 15° |
| 2026-05-05 11:39 | -22.40375 | 121.85994 | 37135 ft | 543 kts | 15° |
| 2026-05-05 11:39 | -22.33558 | 121.89491 | 37130 ft | 543 kts | 15° |
| 2026-05-05 11:40 | -22.26779 | 121.92964 | 37126 ft | 543 kts | 15° |
| 2026-05-05 11:40 | -22.19954 | 121.96457 | 37123 ft | 543 kts | 15° |
| 2026-05-05 11:41 | -22.13131 | 121.99946 | 37093 ft | 542 kts | 15° |
| 2026-05-05 11:41 | -22.06297 | 122.03435 | 37120 ft | 544 kts | 15° |
| 2026-05-05 11:42 | -21.99456 | 122.06925 | 37107 ft | 544 kts | 15° |
| 2026-05-05 11:42 | -21.92624 | 122.10408 | 37109 ft | 543 kts | 15° |
| 2026-05-05 11:43 | -21.85838 | 122.13864 | 37106 ft | 543 kts | 15° |
| 2026-05-05 11:43 | -21.79005 | 122.17337 | 37107 ft | 543 kts | 15° |
| 2026-05-05 11:44 | -21.72172 | 122.20807 | 37098 ft | 544 kts | 15° |
| 2026-05-05 11:44 | -21.65275 | 122.24024 | 37097 ft | 536 kts | 10° |
| 2026-05-05 11:45 | -21.58282 | 122.26748 | 37095 ft | 534 kts | 9° |
| 2026-05-05 11:45 | -21.51332 | 122.29448 | 37064 ft | 535 kts | 10° |
| 2026-05-05 11:46 | -21.44354 | 122.32246 | 37089 ft | 536 kts | 10° |
| 2026-05-05 11:46 | -21.37372 | 122.35087 | 37078 ft | 536 kts | 11° |
| 2026-05-05 11:47 | -21.30392 | 122.37931 | 37088 ft | 536 kts | 11° |
| 2026-05-05 11:47 | -21.23414 | 122.40767 | 37083 ft | 536 kts | 11° |
| 2026-05-05 11:48 | -21.13001 | 122.44990 | 37077 ft | 536 kts | 10° |
| 2026-05-05 11:48 | -21.06024 | 122.47815 | 37078 ft | 536 kts | 10° |
| 2026-05-05 11:49 | -20.99045 | 122.50639 | 37072 ft | 536 kts | 10° |
| 2026-05-05 11:49 | -20.92068 | 122.53459 | 37072 ft | 536 kts | 10° |
| 2026-05-05 11:50 | -20.86267 | 122.55800 | 37063 ft | 536 kts | 11° |
| 2026-05-05 11:50 | -20.78156 | 122.59073 | 37061 ft | 536 kts | 11° |
| 2026-05-05 11:51 | -20.71183 | 122.61883 | 37061 ft | 536 kts | 11° |
| 2026-05-05 11:51 | -20.65337 | 122.64237 | 37053 ft | 535 kts | 11° |
| 2026-05-05 11:52 | -20.58421 | 122.67019 | 37054 ft | 535 kts | 11° |
| 2026-05-05 11:52 | -20.51453 | 122.69827 | 37049 ft | 535 kts | 11° |
| 2026-05-05 11:53 | -20.43355 | 122.73078 | 37047 ft | 535 kts | 11° |
| 2026-05-05 11:53 | -20.37523 | 122.75417 | 37040 ft | 535 kts | 11° |
| 2026-05-05 11:54 | -20.30600 | 122.78192 | 37045 ft | 535 kts | 11° |
| 2026-05-05 11:54 | -20.23632 | 122.80983 | 37036 ft | 535 kts | 11° |
| 2026-05-05 11:55 | -20.16665 | 122.83773 | 37028 ft | 535 kts | 11° |
| 2026-05-05 11:55 | -20.09705 | 122.86557 | 37029 ft | 535 kts | 11° |
| 2026-05-05 11:56 | -20.02736 | 122.89341 | 37030 ft | 535 kts | 11° |
| 2026-05-05 11:56 | -19.95770 | 122.92122 | 37022 ft | 535 kts | 11° |
| 2026-05-05 11:57 | -19.88850 | 122.94881 | 37025 ft | 535 kts | 11° |
| 2026-05-05 11:57 | -19.81883 | 122.97656 | 37018 ft | 535 kts | 11° |
| 2026-05-05 11:58 | -19.74924 | 123.00426 | 37016 ft | 534 kts | 11° |
| 2026-05-05 11:58 | -19.67958 | 123.03196 | 36992 ft | 534 kts | 11° |
| 2026-05-05 11:59 | -19.60990 | 123.05964 | 37019 ft | 535 kts | 12° |
| 2026-05-05 11:59 | -19.54074 | 123.08710 | 37016 ft | 535 kts | 11° |
| 2026-05-05 12:00 | -19.47106 | 123.11473 | 37017 ft | 535 kts | 11° |
| 2026-05-05 12:00 | -19.40128 | 123.14237 | 37017 ft | 535 kts | 11° |
| 2026-05-05 12:01 | -19.33160 | 123.16996 | 37016 ft | 535 kts | 12° |
| 2026-05-05 12:01 | -19.26182 | 123.19755 | 37018 ft | 535 kts | 12° |
| 2026-05-05 12:02 | -19.19202 | 123.22513 | 37018 ft | 535 kts | 12° |
| 2026-05-05 12:02 | -19.12224 | 123.25268 | 37016 ft | 535 kts | 12° |
| 2026-05-05 12:03 | -19.05299 | 123.27999 | 36993 ft | 535 kts | 12° |
| 2026-05-05 12:03 | -18.98319 | 123.30749 | 37007 ft | 535 kts | 12° |
| 2026-05-05 12:04 | -18.91344 | 123.33496 | 37003 ft | 535 kts | 12° |
| 2026-05-05 12:04 | -18.84361 | 123.36243 | 37005 ft | 535 kts | 12° |
| 2026-05-05 12:05 | -18.77380 | 123.38986 | 36999 ft | 535 kts | 12° |
| 2026-05-05 12:05 | -18.70449 | 123.41707 | 37002 ft | 536 kts | 12° |
| 2026-05-05 12:06 | -18.63456 | 123.44450 | 36998 ft | 536 kts | 12° |
| 2026-05-05 12:06 | -18.56467 | 123.47190 | 36995 ft | 536 kts | 12° |
| 2026-05-05 12:07 | -18.49479 | 123.49927 | 36994 ft | 536 kts | 12° |
| 2026-05-05 12:07 | -18.42490 | 123.52661 | 36965 ft | 536 kts | 12° |
| 2026-05-05 12:08 | -18.35534 | 123.55379 | 36989 ft | 537 kts | 12° |
| 2026-05-05 12:08 | -18.28535 | 123.58113 | 36988 ft | 537 kts | 12° |
| 2026-05-05 12:09 | -18.21529 | 123.60848 | 36988 ft | 537 kts | 12° |
| 2026-05-05 12:09 | -18.14520 | 123.63582 | 36984 ft | 537 kts | 12° |
| 2026-05-05 12:10 | -18.07519 | 123.66309 | 36987 ft | 537 kts | 12° |
| 2026-05-05 12:10 | -18.00510 | 123.69037 | 36975 ft | 537 kts | 12° |
| 2026-05-05 12:11 | -17.93545 | 123.71746 | 36977 ft | 537 kts | 12° |
| 2026-05-05 12:11 | -17.86540 | 123.74468 | 36977 ft | 537 kts | 12° |
| 2026-05-05 12:12 | -17.79528 | 123.77191 | 36954 ft | 537 kts | 13° |
| 2026-05-05 12:12 | -17.72521 | 123.79909 | 36946 ft | 537 kts | 13° |
| 2026-05-05 12:13 | -17.65505 | 123.82629 | 36938 ft | 537 kts | 13° |
| 2026-05-05 12:13 | -17.58542 | 123.85327 | 36939 ft | 537 kts | 13° |
| 2026-05-05 12:14 | -17.51613 | 123.88392 | 36972 ft | 543 kts | 18° |
| 2026-05-05 12:14 | -17.44787 | 123.91773 | 36971 ft | 543 kts | 19° |
| 2026-05-05 12:15 | -17.37946 | 123.95122 | 36974 ft | 542 kts | 18° |
| 2026-05-05 12:15 | -17.31086 | 123.98402 | 36974 ft | 541 kts | 18° |